sensor_id;sensor_type;location;lat;lon;timestamp;P1;durP1;ratioP1;P2;durP2;ratioP2
49252;SDS011;35103;47.952;-1.502;2022-07-29T00:01:51;704.70;;;650.78;;
49252;SDS011;35103;47.952;-1.502;2022-07-29T00:04:17;742.63;;;686.67;;
49252;SDS011;35103;47.952;-1.502;2022-07-29T00:06:43;710.15;;;657.40;;
49252;SDS011;35103;47.952;-1.502;2022-07-29T00:09:09;633.38;;;585.05;;
49252;SDS011;35103;47.952;-1.502;2022-07-29T00:11:35;686.83;;;634.65;;
49252;SDS011;35103;47.952;-1.502;2022-07-29T00:14:00;673.58;;;622.80;;
49252;SDS011;35103;47.952;-1.502;2022-07-29T00:16:26;754.13;;;696.80;;
49252;SDS011;35103;47.952;-1.502;2022-07-29T00:18:51;692.75;;;639.70;;
49252;SDS011;35103;47.952;-1.502;2022-07-29T00:21:17;699.72;;;647.13;;
49252;SDS011;35103;47.952;-1.502;2022-07-29T00:23:42;737.92;;;683.28;;
49252;SDS011;35103;47.952;-1.502;2022-07-29T00:26:08;773.75;;;710.90;;
49252;SDS011;35103;47.952;-1.502;2022-07-29T00:28:33;730.78;;;673.08;;
49252;SDS011;35103;47.952;-1.502;2022-07-29T00:30:59;716.90;;;665.80;;
49252;SDS011;35103;47.952;-1.502;2022-07-29T00:33:25;692.00;;;641.90;;
49252;SDS011;35103;47.952;-1.502;2022-07-29T00:35:50;732.35;;;674.95;;
49252;SDS011;35103;47.952;-1.502;2022-07-29T00:38:17;724.63;;;670.72;;
49252;SDS011;35103;47.952;-1.502;2022-07-29T00:40:44;684.95;;;634.05;;
49252;SDS011;35103;47.952;-1.502;2022-07-29T00:43:10;648.55;;;600.30;;
49252;SDS011;35103;47.952;-1.502;2022-07-29T00:45:37;699.53;;;646.38;;
49252;SDS011;35103;47.952;-1.502;2022-07-29T00:48:03;737.47;;;683.53;;
49252;SDS011;35103;47.952;-1.502;2022-07-29T00:50:32;718.42;;;664.15;;
49252;SDS011;35103;47.952;-1.502;2022-07-29T00:52:58;717.72;;;665.25;;
49252;SDS011;35103;47.952;-1.502;2022-07-29T00:55:24;635.88;;;588.20;;
49252;SDS011;35103;47.952;-1.502;2022-07-29T00:57:50;751.38;;;695.13;;
49252;SDS011;35103;47.952;-1.502;2022-07-29T01:00:20;718.47;;;664.08;;
49252;SDS011;35103;47.952;-1.502;2022-07-29T01:02:50;704.63;;;650.83;;
49252;SDS011;35103;47.952;-1.502;2022-07-29T01:05:16;715.58;;;661.10;;
49252;SDS011;35103;47.952;-1.502;2022-07-29T01:07:44;723.70;;;669.70;;
49252;SDS011;35103;47.952;-1.502;2022-07-29T01:10:11;697.08;;;646.33;;
49252;SDS011;35103;47.952;-1.502;2022-07-29T01:12:38;698.63;;;647.38;;
49252;SDS011;35103;47.952;-1.502;2022-07-29T01:15:05;712.97;;;660.22;;
49252;SDS011;35103;47.952;-1.502;2022-07-29T01:17:47;700.15;;;647.60;;
49252;SDS011;35103;47.952;-1.502;2022-07-29T01:28:56;705.67;;;653.03;;
49252;SDS011;35103;47.952;-1.502;2022-07-29T01:31:31;733.08;;;677.50;;
49252;SDS011;35103;47.952;-1.502;2022-07-29T01:34:21;687.60;;;636.33;;
49252;SDS011;35103;47.952;-1.502;2022-07-29T01:39:47;677.90;;;628.70;;
49252;SDS011;35103;47.952;-1.502;2022-07-29T01:44:54;748.75;;;693.15;;
49252;SDS011;35103;47.952;-1.502;2022-07-29T01:50:14;698.55;;;647.42;;
49252;SDS011;35103;47.952;-1.502;2022-07-29T01:52:43;724.53;;;670.78;;
49252;SDS011;35103;47.952;-1.502;2022-07-29T01:55:32;728.88;;;668.63;;
49252;SDS011;35103;47.952;-1.502;2022-07-29T01:58:02;749.05;;;693.15;;
49252;SDS011;35103;47.952;-1.502;2022-07-29T02:00:29;689.05;;;639.85;;
49252;SDS011;35103;47.952;-1.502;2022-07-29T02:02:57;732.03;;;678.08;;
49252;SDS011;35103;47.952;-1.502;2022-07-29T02:05:25;709.70;;;656.88;;
49252;SDS011;35103;47.952;-1.502;2022-07-29T02:07:53;709.03;;;656.28;;
49252;SDS011;35103;47.952;-1.502;2022-07-29T02:10:23;710.35;;;654.47;;
49252;SDS011;35103;47.952;-1.502;2022-07-29T02:12:51;716.13;;;663.63;;
49252;SDS011;35103;47.952;-1.502;2022-07-29T02:15:18;740.70;;;684.45;;
49252;SDS011;35103;47.952;-1.502;2022-07-29T02:18:01;711.88;;;657.45;;
49252;SDS011;35103;47.952;-1.502;2022-07-29T02:20:32;638.63;;;591.67;;
49252;SDS011;35103;47.952;-1.502;2022-07-29T02:22:59;678.03;;;628.78;;
49252;SDS011;35103;47.952;-1.502;2022-07-29T02:25:26;685.42;;;635.30;;
49252;SDS011;35103;47.952;-1.502;2022-07-29T02:27:52;671.63;;;621.00;;
49252;SDS011;35103;47.952;-1.502;2022-07-29T02:30:19;685.13;;;635.45;;
49252;SDS011;35103;47.952;-1.502;2022-07-29T02:32:46;698.78;;;647.78;;
49252;SDS011;35103;47.952;-1.502;2022-07-29T02:35:15;738.85;;;683.15;;
49252;SDS011;35103;47.952;-1.502;2022-07-29T02:37:41;678.10;;;627.33;;
49252;SDS011;35103;47.952;-1.502;2022-07-29T02:40:11;732.60;;;678.38;;
49252;SDS011;35103;47.952;-1.502;2022-07-29T02:42:39;667.72;;;618.40;;
49252;SDS011;35103;47.952;-1.502;2022-07-29T02:45:09;743.10;;;687.03;;
49252;SDS011;35103;47.952;-1.502;2022-07-29T02:47:45;741.20;;;685.22;;
49252;SDS011;35103;47.952;-1.502;2022-07-29T02:50:17;725.03;;;670.25;;
49252;SDS011;35103;47.952;-1.502;2022-07-29T02:53:19;694.85;;;642.05;;
49252;SDS011;35103;47.952;-1.502;2022-07-29T02:55:51;582.85;;;539.53;;
49252;SDS011;35103;47.952;-1.502;2022-07-29T02:58:25;742.33;;;686.45;;
49252;SDS011;35103;47.952;-1.502;2022-07-29T03:01:02;704.55;;;651.95;;
49252;SDS011;35103;47.952;-1.502;2022-07-29T03:03:31;697.97;;;644.88;;
49252;SDS011;35103;47.952;-1.502;2022-07-29T03:06:00;697.05;;;646.40;;
49252;SDS011;35103;47.952;-1.502;2022-07-29T03:08:27;735.85;;;681.53;;
49252;SDS011;35103;47.952;-1.502;2022-07-29T03:10:54;690.97;;;638.83;;
49252;SDS011;35103;47.952;-1.502;2022-07-29T03:13:20;665.88;;;617.80;;
49252;SDS011;35103;47.952;-1.502;2022-07-29T03:15:47;650.72;;;604.05;;
49252;SDS011;35103;47.952;-1.502;2022-07-29T03:18:13;689.72;;;638.97;;
49252;SDS011;35103;47.952;-1.502;2022-07-29T03:20:40;689.40;;;639.53;;
49252;SDS011;35103;47.952;-1.502;2022-07-29T03:23:06;723.72;;;669.78;;
49252;SDS011;35103;47.952;-1.502;2022-07-29T03:25:32;650.25;;;603.88;;
49252;SDS011;35103;47.952;-1.502;2022-07-29T03:27:58;715.72;;;662.28;;
49252;SDS011;35103;47.952;-1.502;2022-07-29T03:30:24;679.22;;;630.92;;
49252;SDS011;35103;47.952;-1.502;2022-07-29T03:32:50;734.85;;;680.47;;
49252;SDS011;35103;47.952;-1.502;2022-07-29T03:35:16;727.83;;;671.83;;
49252;SDS011;35103;47.952;-1.502;2022-07-29T03:37:43;694.15;;;641.28;;
49252;SDS011;35103;47.952;-1.502;2022-07-29T03:40:09;713.58;;;661.03;;
49252;SDS011;35103;47.952;-1.502;2022-07-29T03:42:39;769.53;;;711.72;;
49252;SDS011;35103;47.952;-1.502;2022-07-29T03:45:08;735.85;;;678.67;;
49252;SDS011;35103;47.952;-1.502;2022-07-29T03:47:38;676.97;;;627.67;;
49252;SDS011;35103;47.952;-1.502;2022-07-29T03:50:07;704.97;;;653.72;;
49252;SDS011;35103;47.952;-1.502;2022-07-29T03:52:36;670.65;;;622.05;;
49252;SDS011;35103;47.952;-1.502;2022-07-29T03:55:02;716.97;;;660.17;;
49252;SDS011;35103;47.952;-1.502;2022-07-29T03:57:28;657.05;;;609.63;;
49252;SDS011;35103;47.952;-1.502;2022-07-29T03:59:56;699.15;;;647.75;;
49252;SDS011;35103;47.952;-1.502;2022-07-29T04:02:22;697.08;;;645.38;;
49252;SDS011;35103;47.952;-1.502;2022-07-29T04:04:49;725.20;;;671.63;;
49252;SDS011;35103;47.952;-1.502;2022-07-29T04:07:15;727.97;;;673.92;;
49252;SDS011;35103;47.952;-1.502;2022-07-29T04:09:41;646.50;;;599.50;;
49252;SDS011;35103;47.952;-1.502;2022-07-29T04:12:06;704.85;;;652.03;;
49252;SDS011;35103;47.952;-1.502;2022-07-29T04:14:33;732.50;;;679.67;;
49252;SDS011;35103;47.952;-1.502;2022-07-29T04:16:59;691.10;;;639.75;;
49252;SDS011;35103;47.952;-1.502;2022-07-29T04:19:25;721.53;;;667.50;;
49252;SDS011;35103;47.952;-1.502;2022-07-29T04:21:51;695.92;;;645.78;;
49252;SDS011;35103;47.952;-1.502;2022-07-29T04:24:17;723.90;;;668.08;;
49252;SDS011;35103;47.952;-1.502;2022-07-29T04:26:42;799.50;;;728.15;;
49252;SDS011;35103;47.952;-1.502;2022-07-29T04:29:08;725.72;;;669.42;;
49252;SDS011;35103;47.952;-1.502;2022-07-29T04:31:34;627.78;;;581.85;;
49252;SDS011;35103;47.952;-1.502;2022-07-29T04:33:59;650.83;;;602.22;;
49252;SDS011;35103;47.952;-1.502;2022-07-29T04:36:25;678.65;;;627.10;;
49252;SDS011;35103;47.952;-1.502;2022-07-29T04:38:50;688.17;;;637.10;;
49252;SDS011;35103;47.952;-1.502;2022-07-29T04:41:16;667.33;;;616.45;;
49252;SDS011;35103;47.952;-1.502;2022-07-29T04:43:41;597.15;;;553.45;;
49252;SDS011;35103;47.952;-1.502;2022-07-29T04:46:07;699.10;;;645.78;;
49252;SDS011;35103;47.952;-1.502;2022-07-29T04:48:33;669.10;;;619.40;;
49252;SDS011;35103;47.952;-1.502;2022-07-29T04:50:58;663.30;;;614.95;;
49252;SDS011;35103;47.952;-1.502;2022-07-29T04:53:24;643.60;;;597.03;;
49252;SDS011;35103;47.952;-1.502;2022-07-29T04:55:50;649.25;;;601.78;;
49252;SDS011;35103;47.952;-1.502;2022-07-29T04:58:15;661.63;;;613.13;;
49252;SDS011;35103;47.952;-1.502;2022-07-29T05:00:41;681.03;;;632.63;;
49252;SDS011;35103;47.952;-1.502;2022-07-29T05:03:06;786.88;;;725.47;;
49252;SDS011;35103;47.952;-1.502;2022-07-29T05:05:32;663.22;;;614.75;;
49252;SDS011;35103;47.952;-1.502;2022-07-29T05:07:57;723.17;;;667.60;;
49252;SDS011;35103;47.952;-1.502;2022-07-29T05:10:23;667.78;;;618.88;;
49252;SDS011;35103;47.952;-1.502;2022-07-29T05:12:49;680.75;;;629.17;;
49252;SDS011;35103;47.952;-1.502;2022-07-29T05:15:15;731.65;;;676.40;;
49252;SDS011;35103;47.952;-1.502;2022-07-29T05:17:40;797.58;;;733.63;;
49252;SDS011;35103;47.952;-1.502;2022-07-29T05:20:06;654.58;;;607.53;;
49252;SDS011;35103;47.952;-1.502;2022-07-29T05:22:32;674.22;;;622.60;;
49252;SDS011;35103;47.952;-1.502;2022-07-29T05:24:58;709.63;;;656.67;;
49252;SDS011;35103;47.952;-1.502;2022-07-29T05:27:23;764.80;;;706.97;;
49252;SDS011;35103;47.952;-1.502;2022-07-29T05:29:49;707.03;;;654.83;;
49252;SDS011;35103;47.952;-1.502;2022-07-29T05:32:15;706.20;;;653.22;;
49252;SDS011;35103;47.952;-1.502;2022-07-29T05:34:41;618.63;;;573.80;;
49252;SDS011;35103;47.952;-1.502;2022-07-29T05:37:07;758.58;;;702.35;;
49252;SDS011;35103;47.952;-1.502;2022-07-29T05:39:32;688.33;;;637.92;;
49252;SDS011;35103;47.952;-1.502;2022-07-29T05:41:58;681.92;;;632.55;;
49252;SDS011;35103;47.952;-1.502;2022-07-29T05:44:23;751.65;;;694.47;;
49252;SDS011;35103;47.952;-1.502;2022-07-29T05:46:49;733.63;;;679.22;;
49252;SDS011;35103;47.952;-1.502;2022-07-29T05:49:15;679.38;;;628.63;;
49252;SDS011;35103;47.952;-1.502;2022-07-29T05:51:40;766.53;;;708.15;;
49252;SDS011;35103;47.952;-1.502;2022-07-29T05:54:06;672.65;;;623.53;;
49252;SDS011;35103;47.952;-1.502;2022-07-29T05:56:31;706.97;;;653.28;;
49252;SDS011;35103;47.952;-1.502;2022-07-29T05:58:57;672.00;;;623.17;;
49252;SDS011;35103;47.952;-1.502;2022-07-29T06:01:23;752.25;;;694.88;;
49252;SDS011;35103;47.952;-1.502;2022-07-29T06:03:50;687.67;;;637.10;;
49252;SDS011;35103;47.952;-1.502;2022-07-29T06:06:15;719.40;;;665.50;;
49252;SDS011;35103;47.952;-1.502;2022-07-29T06:08:41;759.63;;;701.55;;
49252;SDS011;35103;47.952;-1.502;2022-07-29T06:11:06;724.88;;;668.70;;
49252;SDS011;35103;47.952;-1.502;2022-07-29T06:13:32;771.47;;;712.42;;
49252;SDS011;35103;47.952;-1.502;2022-07-29T06:15:57;620.45;;;573.60;;
49252;SDS011;35103;47.952;-1.502;2022-07-29T06:18:23;749.50;;;692.20;;
49252;SDS011;35103;47.952;-1.502;2022-07-29T06:20:49;707.63;;;653.00;;
49252;SDS011;35103;47.952;-1.502;2022-07-29T06:23:15;770.95;;;712.38;;
49252;SDS011;35103;47.952;-1.502;2022-07-29T06:25:41;710.28;;;655.70;;
49252;SDS011;35103;47.952;-1.502;2022-07-29T06:28:06;717.72;;;663.95;;
49252;SDS011;35103;47.952;-1.502;2022-07-29T06:30:32;718.05;;;665.25;;
49252;SDS011;35103;47.952;-1.502;2022-07-29T06:32:58;737.95;;;680.42;;
49252;SDS011;35103;47.952;-1.502;2022-07-29T06:35:23;654.90;;;606.30;;
49252;SDS011;35103;47.952;-1.502;2022-07-29T06:37:49;733.53;;;675.67;;
49252;SDS011;35103;47.952;-1.502;2022-07-29T06:40:14;694.47;;;642.45;;
49252;SDS011;35103;47.952;-1.502;2022-07-29T06:42:43;755.05;;;698.03;;
49252;SDS011;35103;47.952;-1.502;2022-07-29T06:45:09;753.60;;;696.63;;
49252;SDS011;35103;47.952;-1.502;2022-07-29T06:47:36;679.22;;;629.72;;
49252;SDS011;35103;47.952;-1.502;2022-07-29T06:50:02;746.92;;;691.55;;
49252;SDS011;35103;47.952;-1.502;2022-07-29T06:52:28;766.63;;;708.97;;
49252;SDS011;35103;47.952;-1.502;2022-07-29T06:54:53;871.17;;;795.92;;
49252;SDS011;35103;47.952;-1.502;2022-07-29T06:57:19;736.13;;;679.53;;
49252;SDS011;35103;47.952;-1.502;2022-07-29T06:59:44;708.80;;;654.75;;
49252;SDS011;35103;47.952;-1.502;2022-07-29T07:02:10;700.15;;;646.92;;
49252;SDS011;35103;47.952;-1.502;2022-07-29T07:04:36;755.83;;;696.20;;
49252;SDS011;35103;47.952;-1.502;2022-07-29T07:07:02;708.78;;;656.17;;
49252;SDS011;35103;47.952;-1.502;2022-07-29T07:09:28;714.30;;;660.90;;
49252;SDS011;35103;47.952;-1.502;2022-07-29T07:11:54;780.35;;;719.85;;
49252;SDS011;35103;47.952;-1.502;2022-07-29T07:14:19;685.65;;;633.80;;
49252;SDS011;35103;47.952;-1.502;2022-07-29T07:16:45;730.20;;;671.47;;
49252;SDS011;35103;47.952;-1.502;2022-07-29T07:19:10;713.67;;;661.10;;
49252;SDS011;35103;47.952;-1.502;2022-07-29T07:21:36;726.30;;;673.13;;
49252;SDS011;35103;47.952;-1.502;2022-07-29T07:24:02;704.30;;;652.20;;
49252;SDS011;35103;47.952;-1.502;2022-07-29T07:26:27;681.38;;;629.35;;
49252;SDS011;35103;47.952;-1.502;2022-07-29T07:28:53;760.95;;;704.38;;
49252;SDS011;35103;47.952;-1.502;2022-07-29T07:31:19;761.22;;;703.28;;
49252;SDS011;35103;47.952;-1.502;2022-07-29T07:33:44;774.03;;;715.03;;
49252;SDS011;35103;47.952;-1.502;2022-07-29T07:36:10;769.13;;;707.05;;
49252;SDS011;35103;47.952;-1.502;2022-07-29T07:38:36;767.80;;;707.92;;
49252;SDS011;35103;47.952;-1.502;2022-07-29T07:41:01;740.50;;;686.42;;
49252;SDS011;35103;47.952;-1.502;2022-07-29T07:43:27;724.85;;;670.38;;
49252;SDS011;35103;47.952;-1.502;2022-07-29T07:45:53;805.30;;;742.92;;
49252;SDS011;35103;47.952;-1.502;2022-07-29T07:48:18;758.92;;;700.03;;
49252;SDS011;35103;47.952;-1.502;2022-07-29T07:50:44;788.08;;;724.33;;
49252;SDS011;35103;47.952;-1.502;2022-07-29T07:53:09;787.97;;;727.38;;
49252;SDS011;35103;47.952;-1.502;2022-07-29T07:55:39;772.40;;;714.15;;
49252;SDS011;35103;47.952;-1.502;2022-07-29T07:58:05;757.67;;;700.05;;
49252;SDS011;35103;47.952;-1.502;2022-07-29T08:00:31;777.67;;;719.13;;
49252;SDS011;35103;47.952;-1.502;2022-07-29T08:02:57;724.22;;;669.33;;
49252;SDS011;35103;47.952;-1.502;2022-07-29T08:05:22;746.13;;;687.35;;
49252;SDS011;35103;47.952;-1.502;2022-07-29T08:07:48;778.55;;;718.65;;
49252;SDS011;35103;47.952;-1.502;2022-07-29T08:10:14;746.95;;;690.15;;
49252;SDS011;35103;47.952;-1.502;2022-07-29T08:12:40;768.05;;;707.92;;
49252;SDS011;35103;47.952;-1.502;2022-07-29T08:15:06;762.70;;;706.08;;
49252;SDS011;35103;47.952;-1.502;2022-07-29T08:17:32;701.10;;;646.63;;
49252;SDS011;35103;47.952;-1.502;2022-07-29T08:19:58;777.13;;;716.55;;
49252;SDS011;35103;47.952;-1.502;2022-07-29T08:22:24;746.25;;;689.60;;
49252;SDS011;35103;47.952;-1.502;2022-07-29T08:24:49;769.70;;;712.08;;
49252;SDS011;35103;47.952;-1.502;2022-07-29T08:27:15;794.03;;;734.05;;
49252;SDS011;35103;47.952;-1.502;2022-07-29T08:29:40;696.67;;;638.17;;
49252;SDS011;35103;47.952;-1.502;2022-07-29T08:32:06;850.53;;;775.65;;
49252;SDS011;35103;47.952;-1.502;2022-07-29T08:34:31;667.33;;;616.83;;
49252;SDS011;35103;47.952;-1.502;2022-07-29T08:36:57;728.83;;;674.38;;
49252;SDS011;35103;47.952;-1.502;2022-07-29T08:39:23;800.47;;;739.63;;
49252;SDS011;35103;47.952;-1.502;2022-07-29T08:41:49;738.40;;;680.25;;
49252;SDS011;35103;47.952;-1.502;2022-07-29T08:44:15;765.15;;;705.35;;
49252;SDS011;35103;47.952;-1.502;2022-07-29T08:46:43;763.70;;;702.88;;
49252;SDS011;35103;47.952;-1.502;2022-07-29T08:49:10;775.85;;;716.20;;
49252;SDS011;35103;47.952;-1.502;2022-07-29T08:51:36;820.25;;;757.55;;
49252;SDS011;35103;47.952;-1.502;2022-07-29T08:54:04;659.17;;;609.95;;
49252;SDS011;35103;47.952;-1.502;2022-07-29T08:56:30;781.25;;;723.67;;
49252;SDS011;35103;47.952;-1.502;2022-07-29T08:58:56;781.33;;;720.70;;
49252;SDS011;35103;47.952;-1.502;2022-07-29T09:01:23;802.70;;;741.45;;
49252;SDS011;35103;47.952;-1.502;2022-07-29T09:03:54;785.80;;;725.85;;
49252;SDS011;35103;47.952;-1.502;2022-07-29T09:06:20;798.90;;;737.50;;
49252;SDS011;35103;47.952;-1.502;2022-07-29T09:08:47;825.88;;;761.17;;
49252;SDS011;35103;47.952;-1.502;2022-07-29T09:11:14;815.85;;;751.83;;
49252;SDS011;35103;47.952;-1.502;2022-07-29T09:13:42;812.95;;;747.60;;
49252;SDS011;35103;47.952;-1.502;2022-07-29T09:16:08;812.13;;;750.47;;
49252;SDS011;35103;47.952;-1.502;2022-07-29T09:18:41;755.97;;;697.35;;
49252;SDS011;35103;47.952;-1.502;2022-07-29T09:21:09;776.67;;;716.53;;
49252;SDS011;35103;47.952;-1.502;2022-07-29T09:23:36;770.45;;;710.45;;
49252;SDS011;35103;47.952;-1.502;2022-07-29T09:26:04;777.50;;;717.13;;
49252;SDS011;35103;47.952;-1.502;2022-07-29T09:28:30;780.78;;;718.95;;
49252;SDS011;35103;47.952;-1.502;2022-07-29T09:30:56;794.33;;;731.03;;
49252;SDS011;35103;47.952;-1.502;2022-07-29T09:33:23;759.85;;;701.90;;
49252;SDS011;35103;47.952;-1.502;2022-07-29T09:38:31;724.28;;;667.67;;
49252;SDS011;35103;47.952;-1.502;2022-07-29T09:40:58;702.90;;;648.72;;
49252;SDS011;35103;47.952;-1.502;2022-07-29T09:43:25;793.97;;;731.08;;
49252;SDS011;35103;47.952;-1.502;2022-07-29T09:45:51;788.40;;;725.75;;
49252;SDS011;35103;47.952;-1.502;2022-07-29T09:48:20;811.08;;;747.90;;
49252;SDS011;35103;47.952;-1.502;2022-07-29T09:50:48;816.88;;;745.85;;
49252;SDS011;35103;47.952;-1.502;2022-07-29T09:53:32;860.92;;;792.88;;
49252;SDS011;35103;47.952;-1.502;2022-07-29T09:56:03;791.35;;;726.60;;
49252;SDS011;35103;47.952;-1.502;2022-07-29T09:58:29;783.75;;;712.40;;
49252;SDS011;35103;47.952;-1.502;2022-07-29T10:00:55;739.17;;;678.13;;
49252;SDS011;35103;47.952;-1.502;2022-07-29T10:03:22;791.10;;;724.92;;
49252;SDS011;35103;47.952;-1.502;2022-07-29T10:06:05;742.25;;;683.15;;
49252;SDS011;35103;47.952;-1.502;2022-07-29T10:08:36;782.28;;;715.47;;
49252;SDS011;35103;47.952;-1.502;2022-07-29T10:11:15;779.70;;;718.83;;
49252;SDS011;35103;47.952;-1.502;2022-07-29T10:13:42;804.08;;;740.42;;
49252;SDS011;35103;47.952;-1.502;2022-07-29T10:16:09;841.20;;;768.28;;
49252;SDS011;35103;47.952;-1.502;2022-07-29T10:18:40;804.90;;;737.88;;
49252;SDS011;35103;47.952;-1.502;2022-07-29T10:21:06;797.35;;;735.60;;
49252;SDS011;35103;47.952;-1.502;2022-07-29T10:23:32;722.15;;;663.60;;
49252;SDS011;35103;47.952;-1.502;2022-07-29T10:25:59;825.08;;;761.88;;
49252;SDS011;35103;47.952;-1.502;2022-07-29T10:28:25;825.13;;;761.42;;
49252;SDS011;35103;47.952;-1.502;2022-07-29T10:30:51;840.78;;;772.88;;
49252;SDS011;35103;47.952;-1.502;2022-07-29T10:43:57;811.92;;;746.85;;
49252;SDS011;35103;47.952;-1.502;2022-07-29T10:46:28;743.85;;;682.00;;
49252;SDS011;35103;47.952;-1.502;2022-07-29T10:49:10;845.05;;;779.10;;
49252;SDS011;35103;47.952;-1.502;2022-07-29T11:05:05;848.15;;;782.42;;
49252;SDS011;35103;47.952;-1.502;2022-07-29T11:07:33;777.17;;;713.60;;
49252;SDS011;35103;47.952;-1.502;2022-07-29T11:15:07;762.80;;;694.95;;
49252;SDS011;35103;47.952;-1.502;2022-07-29T11:31:16;775.03;;;714.20;;
49252;SDS011;35103;47.952;-1.502;2022-07-29T11:33:44;865.50;;;793.63;;
49252;SDS011;35103;47.952;-1.502;2022-07-29T11:36:11;803.40;;;740.53;;
49252;SDS011;35103;47.952;-1.502;2022-07-29T11:38:40;823.78;;;758.63;;
49252;SDS011;35103;47.952;-1.502;2022-07-29T11:41:25;805.67;;;739.35;;
49252;SDS011;35103;47.952;-1.502;2022-07-29T11:43:52;848.03;;;782.05;;
49252;SDS011;35103;47.952;-1.502;2022-07-29T11:49:12;833.22;;;767.55;;
49252;SDS011;35103;47.952;-1.502;2022-07-29T11:51:43;821.00;;;755.05;;
49252;SDS011;35103;47.952;-1.502;2022-07-29T11:54:25;830.90;;;763.30;;
49252;SDS011;35103;47.952;-1.502;2022-07-29T11:56:55;818.35;;;756.95;;
49252;SDS011;35103;47.952;-1.502;2022-07-29T11:59:22;805.80;;;741.90;;
49252;SDS011;35103;47.952;-1.502;2022-07-29T12:01:53;812.28;;;748.03;;
49252;SDS011;35103;47.952;-1.502;2022-07-29T12:04:20;843.22;;;776.55;;
49252;SDS011;35103;47.952;-1.502;2022-07-29T12:06:52;841.40;;;775.22;;
49252;SDS011;35103;47.952;-1.502;2022-07-29T12:09:19;812.97;;;748.22;;
49252;SDS011;35103;47.952;-1.502;2022-07-29T12:11:46;831.80;;;767.40;;
49252;SDS011;35103;47.952;-1.502;2022-07-29T12:16:57;863.47;;;793.30;;
49252;SDS011;35103;47.952;-1.502;2022-07-29T12:19:23;828.90;;;763.70;;
49252;SDS011;35103;47.952;-1.502;2022-07-29T12:21:50;874.30;;;803.80;;
49252;SDS011;35103;47.952;-1.502;2022-07-29T12:24:17;819.47;;;754.30;;
49252;SDS011;35103;47.952;-1.502;2022-07-29T12:26:54;817.55;;;754.22;;
49252;SDS011;35103;47.952;-1.502;2022-07-29T12:29:21;781.65;;;716.38;;
49252;SDS011;35103;47.952;-1.502;2022-07-29T12:31:50;862.35;;;792.05;;
49252;SDS011;35103;47.952;-1.502;2022-07-29T12:34:17;844.85;;;777.60;;
49252;SDS011;35103;47.952;-1.502;2022-07-29T12:36:43;826.13;;;762.55;;
49252;SDS011;35103;47.952;-1.502;2022-07-29T12:39:10;746.95;;;686.42;;
49252;SDS011;35103;47.952;-1.502;2022-07-29T12:41:36;818.60;;;753.47;;
49252;SDS011;35103;47.952;-1.502;2022-07-29T12:44:02;873.92;;;803.15;;
49252;SDS011;35103;47.952;-1.502;2022-07-29T12:46:28;839.33;;;771.83;;
49252;SDS011;35103;47.952;-1.502;2022-07-29T12:48:53;838.10;;;769.55;;
49252;SDS011;35103;47.952;-1.502;2022-07-29T12:51:30;819.42;;;756.42;;
49252;SDS011;35103;47.952;-1.502;2022-07-29T12:56:32;847.17;;;781.22;;
49252;SDS011;35103;47.952;-1.502;2022-07-29T12:58:58;852.15;;;784.28;;
49252;SDS011;35103;47.952;-1.502;2022-07-29T13:01:24;863.08;;;795.10;;
49252;SDS011;35103;47.952;-1.502;2022-07-29T13:06:28;865.67;;;796.05;;
49252;SDS011;35103;47.952;-1.502;2022-07-29T13:14:12;861.30;;;793.67;;
49252;SDS011;35103;47.952;-1.502;2022-07-29T13:19:37;786.75;;;723.47;;
49252;SDS011;35103;47.952;-1.502;2022-07-29T13:22:25;833.20;;;768.63;;
49252;SDS011;35103;47.952;-1.502;2022-07-29T13:27:22;836.90;;;771.53;;
49252;SDS011;35103;47.952;-1.502;2022-07-29T13:29:52;826.38;;;764.25;;
49252;SDS011;35103;47.952;-1.502;2022-07-29T13:32:20;855.08;;;789.40;;
49252;SDS011;35103;47.952;-1.502;2022-07-29T13:34:45;829.05;;;763.42;;
49252;SDS011;35103;47.952;-1.502;2022-07-29T13:37:11;827.05;;;762.08;;
49252;SDS011;35103;47.952;-1.502;2022-07-29T13:39:37;848.42;;;780.47;;
49252;SDS011;35103;47.952;-1.502;2022-07-29T13:42:03;827.45;;;761.78;;
49252;SDS011;35103;47.952;-1.502;2022-07-29T13:44:29;831.08;;;763.95;;
49252;SDS011;35103;47.952;-1.502;2022-07-29T13:46:55;836.60;;;767.72;;
49252;SDS011;35103;47.952;-1.502;2022-07-29T13:49:20;849.28;;;779.47;;
49252;SDS011;35103;47.952;-1.502;2022-07-29T13:51:46;831.92;;;766.00;;
49252;SDS011;35103;47.952;-1.502;2022-07-29T13:54:12;824.70;;;759.47;;
49252;SDS011;35103;47.952;-1.502;2022-07-29T13:56:38;830.25;;;765.13;;
49252;SDS011;35103;47.952;-1.502;2022-07-29T13:59:03;885.92;;;808.13;;
49252;SDS011;35103;47.952;-1.502;2022-07-29T14:01:29;829.97;;;763.33;;
49252;SDS011;35103;47.952;-1.502;2022-07-29T14:03:54;858.33;;;791.97;;
49252;SDS011;35103;47.952;-1.502;2022-07-29T14:06:20;853.53;;;785.70;;
49252;SDS011;35103;47.952;-1.502;2022-07-29T14:08:45;763.40;;;700.67;;
49252;SDS011;35103;47.952;-1.502;2022-07-29T14:11:11;774.22;;;712.83;;
49252;SDS011;35103;47.952;-1.502;2022-07-29T14:13:36;753.72;;;692.70;;
49252;SDS011;35103;47.952;-1.502;2022-07-29T14:16:02;807.78;;;741.88;;
49252;SDS011;35103;47.952;-1.502;2022-07-29T14:18:28;797.10;;;731.20;;
49252;SDS011;35103;47.952;-1.502;2022-07-29T14:20:53;801.38;;;738.88;;
49252;SDS011;35103;47.952;-1.502;2022-07-29T14:23:19;842.38;;;775.83;;
49252;SDS011;35103;47.952;-1.502;2022-07-29T14:25:44;887.20;;;816.95;;
49252;SDS011;35103;47.952;-1.502;2022-07-29T14:28:10;822.53;;;755.35;;
49252;SDS011;35103;47.952;-1.502;2022-07-29T14:30:36;814.55;;;751.22;;
49252;SDS011;35103;47.952;-1.502;2022-07-29T14:33:01;814.50;;;747.35;;
49252;SDS011;35103;47.952;-1.502;2022-07-29T14:35:27;850.00;;;781.50;;
49252;SDS011;35103;47.952;-1.502;2022-07-29T14:37:52;867.33;;;800.97;;
49252;SDS011;35103;47.952;-1.502;2022-07-29T14:40:19;847.17;;;782.47;;
49252;SDS011;35103;47.952;-1.502;2022-07-29T14:42:45;859.03;;;789.50;;
49252;SDS011;35103;47.952;-1.502;2022-07-29T14:45:10;811.95;;;746.75;;
49252;SDS011;35103;47.952;-1.502;2022-07-29T14:47:36;848.17;;;773.40;;
49252;SDS011;35103;47.952;-1.502;2022-07-29T14:50:03;790.17;;;725.47;;
49252;SDS011;35103;47.952;-1.502;2022-07-29T14:52:29;762.35;;;698.10;;
49252;SDS011;35103;47.952;-1.502;2022-07-29T14:54:56;853.55;;;787.22;;
49252;SDS011;35103;47.952;-1.502;2022-07-29T14:57:27;835.63;;;771.30;;
49252;SDS011;35103;47.952;-1.502;2022-07-29T14:59:53;817.33;;;752.35;;
49252;SDS011;35103;47.952;-1.502;2022-07-29T15:02:18;829.25;;;765.60;;
49252;SDS011;35103;47.952;-1.502;2022-07-29T15:04:44;847.83;;;779.95;;
49252;SDS011;35103;47.952;-1.502;2022-07-29T15:07:10;842.88;;;775.00;;
49252;SDS011;35103;47.952;-1.502;2022-07-29T15:09:35;853.78;;;785.65;;